MSC Nuria — 3ESE2 — position and weather

sailwx.info

Track history (hours):
 
Tides and Currents Weather Stations Pressure Air Temp Water Temp Dewpoint Dewpoint Depression Visibility Wind Speed Wind Dir Waves Ship Positions

MSC Nuria

Last reported at 2016-Jan-25 20:33 UTC. Time now 2016-Feb-07 08:32 UTC.
Position N 26°16' W 079°30'.
Warning: this ship's position is 12 days out of date.

Length 275 m; draft 10 m.

Type: Ship (hazmat cat A). MMSI: 370272977.

Date/timePositionNaut miles runAvg speedWind from/ knotsBaromVisibWave heightAir tempDewpointWater temp
2016-Jan-25 20:33N 26°16' W 079°30'1515.4
2016-Jan-25 19:33N 26°12' W 079°46'1615.6
2016-Jan-25 18:33N 26°05' W 080°02'4 4.0
2016-Jan-25 17:27N 26°04' W 080°07'0 0.0
2016-Jan-25 16:32N 26°04' W 080°07'0 0.0
2016-Jan-25 15:29N 26°04' W 080°07'0 0.0
2016-Jan-25 14:22N 26°04' W 080°07'0 0.0
2016-Jan-25 13:31N 26°04' W 080°07'0 0.0
2016-Jan-25 12:24N 26°04' W 080°07'0 0.0
2016-Jan-25 11:33N 26°04' W 080°07'0 0.0
2016-Jan-25 10:27N 26°04' W 080°07'0 0.0
2016-Jan-25 09:33N 26°04' W 080°07'4 3.8
2016-Jan-25 08:33N 26°06' W 080°03'7 7.2
2016-Jan-25 07:33N 26°11' W 079°57'2 2.0
2016-Jan-25 06:34N 26°10' W 079°55'2 2.0
2016-Jan-25 05:33N 26°08' W 079°55'2 2.0
2016-Jan-25 04:33N 26°06' W 079°54'2 2.2
2016-Jan-25 03:34N 26°04' W 079°54'3 2.6
2016-Jan-25 02:33N 26°01' W 079°52'9 9.1
2016-Jan-25 01:33N 26°09' W 079°47'5 4.6
2016-Jan-25 00:33N 26°14' W 079°46'2 1.5
2016-Jan-24 23:33N 26°12' W 079°47'1 1.5
2016-Jan-24 22:33N 26°11' W 079°47'2 1.6
2016-Jan-24 21:33N 26°09' W 079°47'2 1.7
2016-Jan-24 20:33N 26°08' W 079°48'2 1.6
2016-Jan-24 19:33N 26°06' W 079°48'1 1.4
2016-Jan-24 18:33N 26°05' W 079°49'1 1.4
2016-Jan-24 17:33N 26°03' W 079°49'2 1.6
2016-Jan-24 16:34N 26°02' W 079°50'7 6.9
2016-Jan-24 15:34N 26°09' W 079°51'1010.1
2016-Jan-24 14:34N 26°19' W 079°49'9 9.4
2016-Jan-24 13:33N 26°28' W 079°46'1010.2
2016-Jan-24 12:33N 26°36' W 079°39'1010.1
2016-Jan-24 11:33N 26°45' W 079°35'  
2016-Jan-21 08:33N 39°27' W 073°55'1818.7
2016-Jan-21 07:34N 39°45' W 073°51'3115.3
2016-Jan-21 05:30N 40°17' W 073°48'9 9.7
2016-Jan-21 04:33N 40°26' W 073°49'1010.3
2016-Jan-21 03:34N 40°31' W 074°01'9 9.4
2016-Jan-21 02:34N 40°39' W 074°09'3 2.7
2016-Jan-21 01:34N 40°41' W 074°09'0 0.0
2016-Jan-21 00:34N 40°41' W 074°09'0 0.0
2016-Jan-20 23:34N 40°41' W 074°09'0 0.0
2016-Jan-20 22:33N 40°41' W 074°09'0 0.0
2016-Jan-20 21:34N 40°41' W 074°09'0 0.0
2016-Jan-20 20:33N 40°41' W 074°09'0 0.0
2016-Jan-20 19:34N 40°41' W 074°09'0 0.0
2016-Jan-20 18:34N 40°41' W 074°09'0 0.0
2016-Jan-20 17:34N 40°41' W 074°09'0 0.0
2016-Jan-20 16:34N 40°41' W 074°09'0 0.0
2016-Jan-20 15:33N 40°41' W 074°09'0 0.0
2016-Jan-20 14:33N 40°41' W 074°09'0 0.0
2016-Jan-20 13:33N 40°41' W 074°09'0 0.0
2016-Jan-20 12:34N 40°41' W 074°09'0 0.0
2016-Jan-20 11:33N 40°41' W 074°09'0 0.0
2016-Jan-20 10:33N 40°41' W 074°09'0 0.0
2016-Jan-20 09:33N 40°41' W 074°09'0 0.0
2016-Jan-20 08:33N 40°41' W 074°09'0 0.0
2016-Jan-20 07:33N 40°41' W 074°09'0 0.0
2016-Jan-20 06:33N 40°41' W 074°09'0 0.0
2016-Jan-20 05:33N 40°41' W 074°09'0 0.0
2016-Jan-20 04:33N 40°41' W 074°09'0 0.0
2016-Jan-20 03:33N 40°41' W 074°09'0 0.0
2016-Jan-20 02:33N 40°41' W 074°09'0 0.0
2016-Jan-20 01:33N 40°41' W 074°09'0 0.0
2016-Jan-20 00:33N 40°41' W 074°09'0 0.0
2016-Jan-19 23:33N 40°41' W 074°09'0 0.0
2016-Jan-19 22:33N 40°41' W 074°09'0 0.0
2016-Jan-19 21:33N 40°41' W 074°09'0 0.0
2016-Jan-19 20:34N 40°41' W 074°09'0 0.0
2016-Jan-19 19:33N 40°41' W 074°09'0 0.0
2016-Jan-19 18:33N 40°41' W 074°09'0 0.0
2016-Jan-19 17:34N 40°41' W 074°09'0 0.0
2016-Jan-19 16:33N 40°41' W 074°09'0 0.0
2016-Jan-19 15:33N 40°41' W 074°09'0 0.0
2016-Jan-19 14:33N 40°41' W 074°09'0 0.0
2016-Jan-19 13:33N 40°41' W 074°09'0 0.0
2016-Jan-19 12:33N 40°41' W 074°09'0 0.0
2016-Jan-19 11:33N 40°41' W 074°09'3 2.6
2016-Jan-19 10:33N 40°39' W 074°09'7 6.7
2016-Jan-19 09:34N 40°35' W 074°02'1111.2
2016-Jan-19 08:33N 40°28' W 073°50'3411.4
2016-Jan-19 05:33N 39°54' W 073°42'1717.3
2016-Jan-19 04:33N 39°37' W 073°47'1918.6
2016-Jan-19 03:33N 39°20' W 073°57'4019.2
2016-Jan-19 01:27N 38°49' W 074°30'1112.4
2016-Jan-19 00:33N 38°46' W 074°44'9 9.2
2016-Jan-18 23:33N 38°46' W 074°56'8 8.0
2016-Jan-18 22:33N 38°50' W 075°05'1413.6
2016-Jan-18 21:33N 39°03' W 075°10'3414.8
2016-Jan-18 19:16N 39°31' W 075°33'1013.7
2016-Jan-18 18:33N 39°41' W 075°31'1211.7
2016-Jan-18 17:33N 39°50' W 075°22'9 9.2
2016-Jan-18 16:33N 39°53' W 075°10'2 1.9
2016-Jan-18 15:31N 39°54' W 075°08'0 0.0
2016-Jan-18 14:31N 39°54' W 075°08'0 0.0
2016-Jan-18 13:33N 39°54' W 075°08'0 0.0
2016-Jan-18 12:33N 39°54' W 075°08'0 0.0
2016-Jan-18 11:32N 39°54' W 075°08'0 0.0
2016-Jan-18 10:32N 39°54' W 075°08'0 0.0
2016-Jan-18 09:31N 39°54' W 075°08'0 0.0
2016-Jan-18 08:31N 39°54' W 075°08'0 0.0
2016-Jan-18 07:31N 39°54' W 075°08'0 0.0
2016-Jan-18 06:33N 39°54' W 075°08'0 0.0
2016-Jan-18 05:24N 39°54' W 075°08'0 0.0
2016-Jan-18 04:32N 39°54' W 075°08'0 0.0
2016-Jan-18 03:32N 39°54' W 075°08'0 0.0
2016-Jan-18 02:31N 39°54' W 075°08'0 0.0
2016-Jan-18 01:31N 39°54' W 075°08'1 0.5
2016-Jan-18 00:33N 39°54' W 075°08'9 8.7
2016-Jan-17 23:33N 39°51' W 075°19'1111.5
2016-Jan-17 22:34N 39°43' W 075°30'1312.8
2016-Jan-17 21:30N 39°30' W 075°33'3216.3
2016-Jan-17 19:33N 39°04' W 075°10'1414.5
2016-Jan-17 18:34N 38°50' W 075°04'8 8.3
2016-Jan-17 17:33N 38°44' W 074°56'10 9.7
2016-Jan-17 16:34N 38°37' W 074°49'1413.6
2016-Jan-17 15:33N 38°25' W 074°40'66620.2
2016-Jan-16 06:33N 27°58' W 079°08'2119.9
2016-Jan-16 05:31N 27°37' W 079°12'2120.7
2016-Jan-16 04:29N 27°16' W 079°15'1920.7
2016-Jan-16 03:32N 26°57' W 079°13'2119.9
2016-Jan-16 02:30N 26°38' W 079°03'  
Track history (hours):
 
Tides and Currents Weather Stations Pressure Air Temp Water Temp Dewpoint Dewpoint Depression Visibility Wind Speed Wind Dir Waves Ship Positions

MSC Nuria

Last reported at 2016-Jan-25 20:33 UTC. Time now 2016-Feb-07 08:32 UTC.
Position N 26°16' W 079°30'.
Warning: this ship's position is 12 days out of date.

Length 275 m; draft 10 m.

Type: Ship (hazmat cat A). MMSI: 370272977.

Date/timePositionNaut miles runAvg speedWind from/ knotsBaromVisibWave heightAir tempDewpointWater temp
2016-Jan-25 20:33N 26°16' W 079°30'1515.4
2016-Jan-25 19:33N 26°12' W 079°46'1615.6
2016-Jan-25 18:33N 26°05' W 080°02'4 4.0
2016-Jan-25 17:27N 26°04' W 080°07'0 0.0
2016-Jan-25 16:32N 26°04' W 080°07'0 0.0
2016-Jan-25 15:29N 26°04' W 080°07'0 0.0
2016-Jan-25 14:22N 26°04' W 080°07'0 0.0
2016-Jan-25 13:31N 26°04' W 080°07'0 0.0
2016-Jan-25 12:24N 26°04' W 080°07'0 0.0
2016-Jan-25 11:33N 26°04' W 080°07'0 0.0
2016-Jan-25 10:27N 26°04' W 080°07'0 0.0
2016-Jan-25 09:33N 26°04' W 080°07'4 3.8
2016-Jan-25 08:33N 26°06' W 080°03'7 7.2
2016-Jan-25 07:33N 26°11' W 079°57'2 2.0
2016-Jan-25 06:34N 26°10' W 079°55'2 2.0
2016-Jan-25 05:33N 26°08' W 079°55'2 2.0
2016-Jan-25 04:33N 26°06' W 079°54'2 2.2
2016-Jan-25 03:34N 26°04' W 079°54'3 2.6
2016-Jan-25 02:33N 26°01' W 079°52'9 9.1
2016-Jan-25 01:33N 26°09' W 079°47'5 4.6
2016-Jan-25 00:33N 26°14' W 079°46'2 1.5
2016-Jan-24 23:33N 26°12' W 079°47'1 1.5
2016-Jan-24 22:33N 26°11' W 079°47'2 1.6
2016-Jan-24 21:33N 26°09' W 079°47'2 1.7
2016-Jan-24 20:33N 26°08' W 079°48'2 1.6
2016-Jan-24 19:33N 26°06' W 079°48'1 1.4
2016-Jan-24 18:33N 26°05' W 079°49'1 1.4
2016-Jan-24 17:33N 26°03' W 079°49'2 1.6
2016-Jan-24 16:34N 26°02' W 079°50'7 6.9
2016-Jan-24 15:34N 26°09' W 079°51'1010.1
2016-Jan-24 14:34N 26°19' W 079°49'9 9.4
2016-Jan-24 13:33N 26°28' W 079°46'1010.2
2016-Jan-24 12:33N 26°36' W 079°39'1010.1
2016-Jan-24 11:33N 26°45' W 079°35'  
2016-Jan-21 08:33N 39°27' W 073°55'1818.7
2016-Jan-21 07:34N 39°45' W 073°51'3115.3
2016-Jan-21 05:30N 40°17' W 073°48'9 9.7
2016-Jan-21 04:33N 40°26' W 073°49'1010.3
2016-Jan-21 03:34N 40°31' W 074°01'9 9.4
2016-Jan-21 02:34N 40°39' W 074°09'3 2.7
2016-Jan-21 01:34N 40°41' W 074°09'0 0.0
2016-Jan-21 00:34N 40°41' W 074°09'0 0.0
2016-Jan-20 23:34N 40°41' W 074°09'0 0.0
2016-Jan-20 22:33N 40°41' W 074°09'0 0.0
2016-Jan-20 21:34N 40°41' W 074°09'0 0.0
2016-Jan-20 20:33N 40°41' W 074°09'0 0.0
2016-Jan-20 19:34N 40°41' W 074°09'0 0.0
2016-Jan-20 18:34N 40°41' W 074°09'0 0.0
2016-Jan-20 17:34N 40°41' W 074°09'0 0.0
2016-Jan-20 16:34N 40°41' W 074°09'0 0.0
2016-Jan-20 15:33N 40°41' W 074°09'0 0.0
2016-Jan-20 14:33N 40°41' W 074°09'0 0.0
2016-Jan-20 13:33N 40°41' W 074°09'0 0.0
2016-Jan-20 12:34N 40°41' W 074°09'0 0.0
2016-Jan-20 11:33N 40°41' W 074°09'0 0.0
2016-Jan-20 10:33N 40°41' W 074°09'0 0.0
2016-Jan-20 09:33N 40°41' W 074°09'0 0.0
2016-Jan-20 08:33N 40°41' W 074°09'0 0.0
2016-Jan-20 07:33N 40°41' W 074°09'0 0.0
2016-Jan-20 06:33N 40°41' W 074°09'0 0.0
2016-Jan-20 05:33N 40°41' W 074°09'0 0.0
2016-Jan-20 04:33N 40°41' W 074°09'0 0.0
2016-Jan-20 03:33N 40°41' W 074°09'0 0.0
2016-Jan-20 02:33N 40°41' W 074°09'0 0.0
2016-Jan-20 01:33N 40°41' W 074°09'0 0.0
2016-Jan-20 00:33N 40°41' W 074°09'0 0.0
2016-Jan-19 23:33N 40°41' W 074°09'0 0.0
2016-Jan-19 22:33N 40°41' W 074°09'0 0.0
2016-Jan-19 21:33N 40°41' W 074°09'0 0.0
2016-Jan-19 20:34N 40°41' W 074°09'0 0.0
2016-Jan-19 19:33N 40°41' W 074°09'0 0.0
2016-Jan-19 18:33N 40°41' W 074°09'0 0.0
2016-Jan-19 17:34N 40°41' W 074°09'0 0.0
2016-Jan-19 16:33N 40°41' W 074°09'0 0.0
2016-Jan-19 15:33N 40°41' W 074°09'0 0.0
2016-Jan-19 14:33N 40°41' W 074°09'0 0.0
2016-Jan-19 13:33N 40°41' W 074°09'0 0.0
2016-Jan-19 12:33N 40°41' W 074°09'0 0.0
2016-Jan-19 11:33N 40°41' W 074°09'3 2.6
2016-Jan-19 10:33N 40°39' W 074°09'7 6.7
2016-Jan-19 09:34N 40°35' W 074°02'1111.2
2016-Jan-19 08:33N 40°28' W 073°50'3411.4
2016-Jan-19 05:33N 39°54' W 073°42'1717.3
2016-Jan-19 04:33N 39°37' W 073°47'1918.6
2016-Jan-19 03:33N 39°20' W 073°57'4019.2
2016-Jan-19 01:27N 38°49' W 074°30'1112.4
2016-Jan-19 00:33N 38°46' W 074°44'9 9.2
2016-Jan-18 23:33N 38°46' W 074°56'8 8.0
2016-Jan-18 22:33N 38°50' W 075°05'1413.6
2016-Jan-18 21:33N 39°03' W 075°10'3414.8
2016-Jan-18 19:16N 39°31' W 075°33'1013.7
2016-Jan-18 18:33N 39°41' W 075°31'1211.7
2016-Jan-18 17:33N 39°50' W 075°22'9 9.2
2016-Jan-18 16:33N 39°53' W 075°10'2 1.9
2016-Jan-18 15:31N 39°54' W 075°08'0 0.0
2016-Jan-18 14:31N 39°54' W 075°08'0 0.0
2016-Jan-18 13:33N 39°54' W 075°08'0 0.0
2016-Jan-18 12:33N 39°54' W 075°08'0 0.0
2016-Jan-18 11:32N 39°54' W 075°08'0 0.0
2016-Jan-18 10:32N 39°54' W 075°08'0 0.0
2016-Jan-18 09:31N 39°54' W 075°08'0 0.0
2016-Jan-18 08:31N 39°54' W 075°08'0 0.0
2016-Jan-18 07:31N 39°54' W 075°08'0 0.0
2016-Jan-18 06:33N 39°54' W 075°08'0 0.0
2016-Jan-18 05:24N 39°54' W 075°08'0 0.0
2016-Jan-18 04:32N 39°54' W 075°08'0 0.0
2016-Jan-18 03:32N 39°54' W 075°08'0 0.0
2016-Jan-18 02:31N 39°54' W 075°08'0 0.0
2016-Jan-18 01:31N 39°54' W 075°08'1 0.5
2016-Jan-18 00:33N 39°54' W 075°08'9 8.7
2016-Jan-17 23:33N 39°51' W 075°19'1111.5
2016-Jan-17 22:34N 39°43' W 075°30'1312.8
2016-Jan-17 21:30N 39°30' W 075°33'3216.3
2016-Jan-17 19:33N 39°04' W 075°10'1414.5
2016-Jan-17 18:34N 38°50' W 075°04'8 8.3
2016-Jan-17 17:33N 38°44' W 074°56'10 9.7
2016-Jan-17 16:34N 38°37' W 074°49'1413.6
2016-Jan-17 15:33N 38°25' W 074°40'66620.2
2016-Jan-16 06:33N 27°58' W 079°08'2119.9
2016-Jan-16 05:31N 27°37' W 079°12'2120.7
2016-Jan-16 04:29N 27°16' W 079°15'1920.7
2016-Jan-16 03:32N 26°57' W 079°13'2119.9
2016-Jan-16 02:30N 26°38' W 079°03'  

Dump ship's entire track history